sensor_id;sensor_type;location;lat;lon;timestamp;pressure;altitude;pressure_sealevel;temperature;humidity
56518;BME280;42419;48.760;2.322;2023-06-22T00:01:50;100962.88;;;25.94;nan
56518;BME280;42419;48.760;2.322;2023-06-22T00:04:15;100943.78;;;25.83;nan
56518;BME280;42419;48.760;2.322;2023-06-22T00:06:40;100945.63;;;25.82;nan
56518;BME280;42419;48.760;2.322;2023-06-22T00:09:06;100959.16;;;25.97;nan
56518;BME280;42419;48.760;2.322;2023-06-22T00:11:33;100950.19;;;25.96;nan
56518;BME280;42419;48.760;2.322;2023-06-22T00:13:58;100868.34;;;25.52;nan
56518;BME280;42419;48.760;2.322;2023-06-22T00:16:24;100943.91;;;25.96;nan
56518;BME280;42419;48.760;2.322;2023-06-22T00:18:49;100944.78;;;25.96;nan
56518;BME280;42419;48.760;2.322;2023-06-22T00:21:15;100838.06;;;25.32;nan
56518;BME280;42419;48.760;2.322;2023-06-22T00:23:40;100923.75;;;25.87;nan
56518;BME280;42419;48.760;2.322;2023-06-22T00:26:06;100936.78;;;25.95;nan
56518;BME280;42419;48.760;2.322;2023-06-22T00:28:32;100888.75;;;25.71;nan
56518;BME280;42419;48.760;2.322;2023-06-22T00:30:57;100924.16;;;25.95;nan
56518;BME280;42419;48.760;2.322;2023-06-22T00:33:22;100925.97;;;25.95;nan
56518;BME280;42419;48.760;2.322;2023-06-22T00:35:48;100925.09;;;25.94;nan
56518;BME280;42419;48.760;2.322;2023-06-22T00:38:13;100925.09;;;25.94;nan
56518;BME280;42419;48.760;2.322;2023-06-22T00:40:38;100908.91;;;25.94;nan
56518;BME280;42419;48.760;2.322;2023-06-22T00:43:04;100910.84;;;25.92;nan
56518;BME280;42419;48.760;2.322;2023-06-22T00:45:30;100891.56;;;25.84;nan
56518;BME280;42419;48.760;2.322;2023-06-22T00:47:57;100907.16;;;25.93;nan
56518;BME280;42419;48.760;2.322;2023-06-22T00:50:25;100910.16;;;25.88;nan
56518;BME280;42419;48.760;2.322;2023-06-22T00:52:52;100912.56;;;25.93;nan
56518;BME280;42419;48.760;2.322;2023-06-22T00:55:22;100900.06;;;25.92;nan
56518;BME280;42419;48.760;2.322;2023-06-22T00:57:48;100900.94;;;25.92;nan
56518;BME280;42419;48.760;2.322;2023-06-22T01:00:14;100871.31;;;25.77;nan
56518;BME280;42419;48.760;2.322;2023-06-22T01:02:42;100900.06;;;25.92;nan
56518;BME280;42419;48.760;2.322;2023-06-22T01:05:14;100875.75;;;25.78;nan
56518;BME280;42419;48.760;2.322;2023-06-22T01:08:00;100895.53;;;25.92;nan
56518;BME280;42419;48.760;2.322;2023-06-22T01:11:02;100862.56;;;25.73;nan
56518;BME280;42419;48.760;2.322;2023-06-22T01:13:45;100884.91;;;25.89;nan
56518;BME280;42419;48.760;2.322;2023-06-22T01:16:17;100823.19;;;25.55;nan
56518;BME280;42419;48.760;2.322;2023-06-22T01:18:44;100870.56;;;25.89;nan
56518;BME280;42419;48.760;2.322;2023-06-22T01:21:14;100864.56;;;25.84;nan
56518;BME280;42419;48.760;2.322;2023-06-22T01:23:51;100879.63;;;25.88;nan
56518;BME280;42419;48.760;2.322;2023-06-22T01:28:53;100876.06;;;25.87;nan
56518;BME280;42419;48.760;2.322;2023-06-22T01:31:23;100869.00;;;25.85;nan
56518;BME280;42419;48.760;2.322;2023-06-22T01:34:01;100871.63;;;25.86;nan
56518;BME280;42419;48.760;2.322;2023-06-22T01:36:28;100865.28;;;25.87;nan
56518;BME280;42419;48.760;2.322;2023-06-22T01:38:56;100839.16;;;25.74;nan
56518;BME280;42419;48.760;2.322;2023-06-22T01:41:25;100851.88;;;25.86;nan
56518;BME280;42419;48.760;2.322;2023-06-22T01:43:51;100831.16;;;25.72;nan
56518;BME280;42419;48.760;2.322;2023-06-22T01:46:18;100838.94;;;25.77;nan
56518;BME280;42419;48.760;2.322;2023-06-22T01:48:45;100790.25;;;25.50;nan
56518;BME280;42419;48.760;2.322;2023-06-22T01:51:11;100851.88;;;25.86;nan
56518;BME280;42419;48.760;2.322;2023-06-22T01:53:37;100851.00;;;25.85;nan
56518;BME280;42419;48.760;2.322;2023-06-22T01:56:02;100839.34;;;25.85;nan
56518;BME280;42419;48.760;2.322;2023-06-22T01:58:29;100845.59;;;25.85;nan
56518;BME280;42419;48.760;2.322;2023-06-22T02:01:00;100829.13;;;25.76;nan
56518;BME280;42419;48.760;2.322;2023-06-22T02:03:34;100845.69;;;25.84;nan
56518;BME280;42419;48.760;2.322;2023-06-22T02:06:25;100842.16;;;25.83;nan
56518;BME280;42419;48.760;2.322;2023-06-22T02:08:59;100830.19;;;25.73;nan
56518;BME280;42419;48.760;2.322;2023-06-22T02:11:26;100841.28;;;25.83;nan
56518;BME280;42419;48.760;2.322;2023-06-22T02:13:53;100848.50;;;25.82;nan
56518;BME280;42419;48.760;2.322;2023-06-22T02:16:20;100842.25;;;25.82;nan
56518;BME280;42419;48.760;2.322;2023-06-22T02:18:47;100842.25;;;25.82;nan
56518;BME280;42419;48.760;2.322;2023-06-22T02:21:12;100825.00;;;25.70;nan
56518;BME280;42419;48.760;2.322;2023-06-22T02:23:38;100823.06;;;25.72;nan
56518;BME280;42419;48.760;2.322;2023-06-22T02:26:03;100829.91;;;25.78;nan
56518;BME280;42419;48.760;2.322;2023-06-22T02:28:29;100832.41;;;25.81;nan
56518;BME280;42419;48.760;2.322;2023-06-22T02:30:54;100804.25;;;25.71;nan
56518;BME280;42419;48.760;2.322;2023-06-22T02:33:19;100824.31;;;25.81;nan
56518;BME280;42419;48.760;2.322;2023-06-22T02:35:45;100797.41;;;25.65;nan
56518;BME280;42419;48.760;2.322;2023-06-22T02:38:14;100820.75;;;25.80;nan
56518;BME280;42419;48.760;2.322;2023-06-22T02:40:39;100822.56;;;25.80;nan
56518;BME280;42419;48.760;2.322;2023-06-22T02:43:05;100806.16;;;25.69;nan
56518;BME280;42419;48.760;2.322;2023-06-22T02:45:30;100832.47;;;25.79;nan
56518;BME280;42419;48.760;2.322;2023-06-22T02:47:56;100826.34;;;25.77;nan
56518;BME280;42419;48.760;2.322;2023-06-22T02:50:21;100842.44;;;25.79;nan
56518;BME280;42419;48.760;2.322;2023-06-22T02:52:46;100839.81;;;25.77;nan
56518;BME280;42419;48.760;2.322;2023-06-22T02:55:12;100837.13;;;25.77;nan
56518;BME280;42419;48.760;2.322;2023-06-22T02:57:37;100838.94;;;25.77;nan
56518;BME280;42419;48.760;2.322;2023-06-22T03:00:03;100821.16;;;25.74;nan
56518;BME280;42419;48.760;2.322;2023-06-22T03:02:41;100823.72;;;25.76;nan
56518;BME280;42419;48.760;2.322;2023-06-22T03:05:07;100814.69;;;25.77;nan
56518;BME280;42419;48.760;2.322;2023-06-22T03:07:35;100819.19;;;25.76;nan
56518;BME280;42419;48.760;2.322;2023-06-22T03:10:00;100794.06;;;25.76;nan
56518;BME280;42419;48.760;2.322;2023-06-22T03:12:25;100788.66;;;25.76;nan
56518;BME280;42419;48.760;2.322;2023-06-22T03:14:50;100785.09;;;25.75;nan
56518;BME280;42419;48.760;2.322;2023-06-22T03:17:16;100782.38;;;25.75;nan
56518;BME280;42419;48.760;2.322;2023-06-22T03:19:41;100781.44;;;25.76;nan
56518;BME280;42419;48.760;2.322;2023-06-22T03:22:06;100783.25;;;25.76;nan
56518;BME280;42419;48.760;2.322;2023-06-22T03:24:32;100785.09;;;25.75;nan
56518;BME280;42419;48.760;2.322;2023-06-22T03:26:59;100794.06;;;25.76;nan
56518;BME280;42419;48.760;2.322;2023-06-22T03:29:25;100800.41;;;25.75;nan
56518;BME280;42419;48.760;2.322;2023-06-22T03:31:50;100791.34;;;25.76;nan
56518;BME280;42419;48.760;2.322;2023-06-22T03:34:16;100781.53;;;25.75;nan
56518;BME280;42419;48.760;2.322;2023-06-22T03:36:41;100781.53;;;25.75;nan
56518;BME280;42419;48.760;2.322;2023-06-22T03:39:07;100773.44;;;25.75;nan
56518;BME280;42419;48.760;2.322;2023-06-22T03:41:33;100773.44;;;25.75;nan
56518;BME280;42419;48.760;2.322;2023-06-22T03:43:58;100773.34;;;25.76;nan
56518;BME280;42419;48.760;2.322;2023-06-22T03:46:23;100762.06;;;25.70;nan
56518;BME280;42419;48.760;2.322;2023-06-22T03:48:49;100770.72;;;25.75;nan
56518;BME280;42419;48.760;2.322;2023-06-22T03:51:14;100774.31;;;25.75;nan
56518;BME280;42419;48.760;2.322;2023-06-22T03:53:39;100756.25;;;25.62;nan
56518;BME280;42419;48.760;2.322;2023-06-22T03:56:05;100786.91;;;25.75;nan
56518;BME280;42419;48.760;2.322;2023-06-22T03:58:30;100769.28;;;25.69;nan
56518;BME280;42419;48.760;2.322;2023-06-22T04:00:58;100782.50;;;25.74;nan
56518;BME280;42419;48.760;2.322;2023-06-22T04:03:25;100786.91;;;25.75;nan
56518;BME280;42419;48.760;2.322;2023-06-22T04:05:50;100785.97;;;25.76;nan
56518;BME280;42419;48.760;2.322;2023-06-22T04:08:16;100789.81;;;25.72;nan
56518;BME280;42419;48.760;2.322;2023-06-22T04:10:41;100789.72;;;25.73;nan
56518;BME280;42419;48.760;2.322;2023-06-22T04:13:07;100797.69;;;25.75;nan
56518;BME280;42419;48.760;2.322;2023-06-22T04:15:32;100793.31;;;25.74;nan
56518;BME280;42419;48.760;2.322;2023-06-22T04:17:58;100802.34;;;25.73;nan
56518;BME280;42419;48.760;2.322;2023-06-22T04:20:23;100793.31;;;25.74;nan
56518;BME280;42419;48.760;2.322;2023-06-22T04:22:54;100805.03;;;25.73;nan
56518;BME280;42419;48.760;2.322;2023-06-22T04:25:20;100807.75;;;25.73;nan
56518;BME280;42419;48.760;2.322;2023-06-22T04:27:46;100810.44;;;25.73;nan
56518;BME280;42419;48.760;2.322;2023-06-22T04:30:12;100808.69;;;25.72;nan
56518;BME280;42419;48.760;2.322;2023-06-22T04:32:41;100806.88;;;25.72;nan
56518;BME280;42419;48.760;2.322;2023-06-22T04:35:07;100794.78;;;25.64;nan
56518;BME280;42419;48.760;2.322;2023-06-22T04:37:33;100814.09;;;25.72;nan
56518;BME280;42419;48.760;2.322;2023-06-22T04:39:58;100807.81;;;25.71;nan
56518;BME280;42419;48.760;2.322;2023-06-22T04:42:26;100802.69;;;25.67;nan
56518;BME280;42419;48.760;2.322;2023-06-22T04:44:52;100805.22;;;25.70;nan
56518;BME280;42419;48.760;2.322;2023-06-22T04:47:18;100803.41;;;25.70;nan
56518;BME280;42419;48.760;2.322;2023-06-22T04:49:43;100797.41;;;25.65;nan
56518;BME280;42419;48.760;2.322;2023-06-22T04:52:14;100816.91;;;25.70;nan
56518;BME280;42419;48.760;2.322;2023-06-22T04:54:43;100812.44;;;25.69;nan
56518;BME280;42419;48.760;2.322;2023-06-22T04:57:16;100813.38;;;25.68;nan
56518;BME280;42419;48.760;2.322;2023-06-22T04:59:42;100807.22;;;25.66;nan
56518;BME280;42419;48.760;2.322;2023-06-22T05:02:08;100800.78;;;25.69;nan
56518;BME280;42419;48.760;2.322;2023-06-22T05:04:34;100811.56;;;25.69;nan
56518;BME280;42419;48.760;2.322;2023-06-22T05:07:06;100802.69;;;25.67;nan
56518;BME280;42419;48.760;2.322;2023-06-22T05:09:31;100807.91;;;25.70;nan
56518;BME280;42419;48.760;2.322;2023-06-22T05:11:59;100787.19;;;25.56;nan
56518;BME280;42419;48.760;2.322;2023-06-22T05:14:27;100805.28;;;25.68;nan
56518;BME280;42419;48.760;2.322;2023-06-22T05:16:52;100805.38;;;25.67;nan
56518;BME280;42419;48.760;2.322;2023-06-22T05:19:18;100796.41;;;25.66;nan
56518;BME280;42419;48.760;2.322;2023-06-22T05:21:43;100677.81;;;24.94;nan
56518;BME280;42419;48.760;2.322;2023-06-22T05:24:08;100796.41;;;25.66;nan
56518;BME280;42419;48.760;2.322;2023-06-22T05:26:34;100784.78;;;25.66;nan
56518;BME280;42419;48.760;2.322;2023-06-22T05:29:01;100779.41;;;25.66;nan
56518;BME280;42419;48.760;2.322;2023-06-22T05:31:27;100774.84;;;25.66;nan
56518;BME280;42419;48.760;2.322;2023-06-22T05:33:54;100730.25;;;25.46;nan
56518;BME280;42419;48.760;2.322;2023-06-22T05:36:20;100777.53;;;25.66;nan
56518;BME280;42419;48.760;2.322;2023-06-22T05:38:46;100774.00;;;25.66;nan
56518;BME280;42419;48.760;2.322;2023-06-22T05:41:12;100783.91;;;25.65;nan
56518;BME280;42419;48.760;2.322;2023-06-22T05:43:37;100770.88;;;25.58;nan
56518;BME280;42419;48.760;2.322;2023-06-22T05:46:04;100757.59;;;25.55;nan
56518;BME280;42419;48.760;2.322;2023-06-22T05:48:29;100780.34;;;25.65;nan
56518;BME280;42419;48.760;2.322;2023-06-22T05:50:54;100770.53;;;25.64;nan
56518;BME280;42419;48.760;2.322;2023-06-22T05:53:20;100771.41;;;25.64;nan
56518;BME280;42419;48.760;2.322;2023-06-22T05:55:46;100767.81;;;25.64;nan
56518;BME280;42419;48.760;2.322;2023-06-22T05:58:11;100768.69;;;25.64;nan
56518;BME280;42419;48.760;2.322;2023-06-22T06:00:38;100767.81;;;25.64;nan
56518;BME280;42419;48.760;2.322;2023-06-22T06:03:03;100745.38;;;25.49;nan
56518;BME280;42419;48.760;2.322;2023-06-22T06:05:30;100774.97;;;25.65;nan
56518;BME280;42419;48.760;2.322;2023-06-22T06:07:55;100772.25;;;25.65;nan
56518;BME280;42419;48.760;2.322;2023-06-22T06:10:21;100772.25;;;25.65;nan
56518;BME280;42419;48.760;2.322;2023-06-22T06:12:46;100771.41;;;25.64;nan
56518;BME280;42419;48.760;2.322;2023-06-22T06:15:11;100774.09;;;25.64;nan
56518;BME280;42419;48.760;2.322;2023-06-22T06:17:45;100775.03;;;25.63;nan
56518;BME280;42419;48.760;2.322;2023-06-22T06:20:11;100776.78;;;25.64;nan
56518;BME280;42419;48.760;2.322;2023-06-22T06:22:37;100780.34;;;25.65;nan
56518;BME280;42419;48.760;2.322;2023-06-22T06:25:02;100784.88;;;25.64;nan
56518;BME280;42419;48.760;2.322;2023-06-22T06:27:28;100789.41;;;25.64;nan
56518;BME280;42419;48.760;2.322;2023-06-22T06:29:54;100794.88;;;25.62;nan
56518;BME280;42419;48.760;2.322;2023-06-22T06:32:19;100801.13;;;25.63;nan
56518;BME280;42419;48.760;2.322;2023-06-22T06:34:45;100804.78;;;25.62;nan
56518;BME280;42419;48.760;2.322;2023-06-22T06:37:10;100784.22;;;25.61;nan
56518;BME280;42419;48.760;2.322;2023-06-22T06:39:36;100780.53;;;25.62;nan
56518;BME280;42419;48.760;2.322;2023-06-22T06:42:01;100751.63;;;25.49;nan
56518;BME280;42419;48.760;2.322;2023-06-22T06:44:26;100725.44;;;25.37;nan
56518;BME280;42419;48.760;2.322;2023-06-22T06:46:52;100758.94;;;25.62;nan
56518;BME280;42419;48.760;2.322;2023-06-22T06:49:19;100760.81;;;25.61;nan
56518;BME280;42419;48.760;2.322;2023-06-22T06:51:44;100755.41;;;25.61;nan
56518;BME280;42419;48.760;2.322;2023-06-22T06:54:10;100741.94;;;25.61;nan
56518;BME280;42419;48.760;2.322;2023-06-22T06:56:35;100707.16;;;25.42;nan
56518;BME280;42419;48.760;2.322;2023-06-22T06:59:00;100741.94;;;25.61;nan
56518;BME280;42419;48.760;2.322;2023-06-22T07:01:26;100747.31;;;25.61;nan
56518;BME280;42419;48.760;2.322;2023-06-22T07:03:51;100752.13;;;25.56;nan
56518;BME280;42419;48.760;2.322;2023-06-22T07:06:16;100753.97;;;25.56;nan
56518;BME280;42419;48.760;2.322;2023-06-22T07:08:42;100741.50;;;25.53;nan
56518;BME280;42419;48.760;2.322;2023-06-22T07:11:08;100718.69;;;25.44;nan
56518;BME280;42419;48.760;2.322;2023-06-22T07:13:33;100719.28;;;25.49;nan
56518;BME280;42419;48.760;2.322;2023-06-22T07:15:59;100738.38;;;25.61;nan
56518;BME280;42419;48.760;2.322;2023-06-22T07:18:24;100731.22;;;25.60;nan
56518;BME280;42419;48.760;2.322;2023-06-22T07:20:49;100726.88;;;25.57;nan
56518;BME280;42419;48.760;2.322;2023-06-22T07:23:15;100716.59;;;25.49;nan
56518;BME280;42419;48.760;2.322;2023-06-22T07:25:41;100734.78;;;25.60;nan
56518;BME280;42419;48.760;2.322;2023-06-22T07:28:07;100736.63;;;25.60;nan
56518;BME280;42419;48.760;2.322;2023-06-22T07:30:33;100731.22;;;25.60;nan
56518;BME280;42419;48.760;2.322;2023-06-22T07:32:59;100714.09;;;25.46;nan
56518;BME280;42419;48.760;2.322;2023-06-22T07:35:30;100742.00;;;25.60;nan
56518;BME280;42419;48.760;2.322;2023-06-22T07:37:55;100709.84;;;25.42;nan
56518;BME280;42419;48.760;2.322;2023-06-22T07:40:21;100740.28;;;25.59;nan
56518;BME280;42419;48.760;2.322;2023-06-22T07:42:46;100742.09;;;25.58;nan
56518;BME280;42419;48.760;2.322;2023-06-22T07:45:16;100745.66;;;25.59;nan
56518;BME280;42419;48.760;2.322;2023-06-22T07:47:42;100745.66;;;25.59;nan
56518;BME280;42419;48.760;2.322;2023-06-22T07:50:07;100736.91;;;25.55;nan
56518;BME280;42419;48.760;2.322;2023-06-22T07:52:33;100747.78;;;25.54;nan
56518;BME280;42419;48.760;2.322;2023-06-22T07:54:58;100756.44;;;25.59;nan
56518;BME280;42419;48.760;2.322;2023-06-22T07:57:23;100743.94;;;25.58;nan
56518;BME280;42419;48.760;2.322;2023-06-22T07:59:57;100751.16;;;25.57;nan
56518;BME280;42419;48.760;2.322;2023-06-22T08:02:22;100760.09;;;25.58;nan
56518;BME280;42419;48.760;2.322;2023-06-22T08:04:47;100740.47;;;25.56;nan
56518;BME280;42419;48.760;2.322;2023-06-22T08:07:13;100734.59;;;25.49;nan
56518;BME280;42419;48.760;2.322;2023-06-22T08:09:38;100744.78;;;25.58;nan
56518;BME280;42419;48.760;2.322;2023-06-22T08:12:04;100752.88;;;25.58;nan
56518;BME280;42419;48.760;2.322;2023-06-22T08:14:30;100739.41;;;25.58;nan
56518;BME280;42419;48.760;2.322;2023-06-22T08:16:55;100744.78;;;25.58;nan
56518;BME280;42419;48.760;2.322;2023-06-22T08:19:20;100747.78;;;25.54;nan
56518;BME280;42419;48.760;2.322;2023-06-22T08:21:46;100739.22;;;25.47;nan
56518;BME280;42419;48.760;2.322;2023-06-22T08:24:11;100761.84;;;25.59;nan
56518;BME280;42419;48.760;2.322;2023-06-22T08:26:37;100764.53;;;25.59;nan
56518;BME280;42419;48.760;2.322;2023-06-22T08:29:03;100764.53;;;25.59;nan
56518;BME280;42419;48.760;2.322;2023-06-22T08:31:30;100740.47;;;25.41;nan
56518;BME280;42419;48.760;2.322;2023-06-22T08:33:55;100766.66;;;25.54;nan
56518;BME280;42419;48.760;2.322;2023-06-22T08:36:21;100763.69;;;25.58;nan
56518;BME280;42419;48.760;2.322;2023-06-22T08:38:46;100759.22;;;25.57;nan
56518;BME280;42419;48.760;2.322;2023-06-22T08:41:15;100765.50;;;25.58;nan
56518;BME280;42419;48.760;2.322;2023-06-22T08:43:41;100754.72;;;25.58;nan
56518;BME280;42419;48.760;2.322;2023-06-22T08:46:07;100741.81;;;25.48;nan
56518;BME280;42419;48.760;2.322;2023-06-22T08:48:32;100755.59;;;25.58;nan
56518;BME280;42419;48.760;2.322;2023-06-22T08:50:57;100749.31;;;25.58;nan
56518;BME280;42419;48.760;2.322;2023-06-22T08:53:22;100751.06;;;25.59;nan
56518;BME280;42419;48.760;2.322;2023-06-22T08:55:48;100750.59;;;25.52;nan
56518;BME280;42419;48.760;2.322;2023-06-22T08:58:15;100756.44;;;25.59;nan
56518;BME280;42419;48.760;2.322;2023-06-22T09:00:41;100753.75;;;25.59;nan
56518;BME280;42419;48.760;2.322;2023-06-22T09:03:06;100759.06;;;25.60;nan
56518;BME280;42419;48.760;2.322;2023-06-22T09:05:32;100750.47;;;25.54;nan
56518;BME280;42419;48.760;2.322;2023-06-22T09:07:57;100764.47;;;25.60;nan
56518;BME280;42419;48.760;2.322;2023-06-22T09:10:24;100759.06;;;25.60;nan
56518;BME280;42419;48.760;2.322;2023-06-22T09:12:49;100763.50;;;25.61;nan
56518;BME280;42419;48.760;2.322;2023-06-22T09:15:15;100761.66;;;25.62;nan
56518;BME280;42419;48.760;2.322;2023-06-22T09:17:40;100768.78;;;25.63;nan
56518;BME280;42419;48.760;2.322;2023-06-22T09:20:11;100734.78;;;25.46;nan
56518;BME280;42419;48.760;2.322;2023-06-22T09:22:36;100761.75;;;25.60;nan
56518;BME280;42419;48.760;2.322;2023-06-22T09:25:02;100747.13;;;25.50;nan
56518;BME280;42419;48.760;2.322;2023-06-22T09:27:28;100744.63;;;25.47;nan
56518;BME280;42419;48.760;2.322;2023-06-22T09:29:53;100766.88;;;25.65;nan
56518;BME280;42419;48.760;2.322;2023-06-22T09:32:18;100776.69;;;25.66;nan
56518;BME280;42419;48.760;2.322;2023-06-22T09:34:44;100776.69;;;25.66;nan
56518;BME280;42419;48.760;2.322;2023-06-22T09:37:09;100760.22;;;25.56;nan
56518;BME280;42419;48.760;2.322;2023-06-22T09:39:35;100774.75;;;25.68;nan
56518;BME280;42419;48.760;2.322;2023-06-22T09:42:01;100759.16;;;25.59;nan
56518;BME280;42419;48.760;2.322;2023-06-22T09:44:26;100783.63;;;25.70;nan
56518;BME280;42419;48.760;2.322;2023-06-22T09:46:52;100768.25;;;25.72;nan
56518;BME280;42419;48.760;2.322;2023-06-22T09:49:18;100796.94;;;25.73;nan
56518;BME280;42419;48.760;2.322;2023-06-22T09:51:43;100787.91;;;25.74;nan
56518;BME280;42419;48.760;2.322;2023-06-22T09:54:08;100811.19;;;25.75;nan
56518;BME280;42419;48.760;2.322;2023-06-22T09:56:33;100816.59;;;25.75;nan
56518;BME280;42419;48.760;2.322;2023-06-22T09:58:59;100814.22;;;25.70;nan
56518;BME280;42419;48.760;2.322;2023-06-22T10:01:24;100722.63;;;25.11;nan
56518;BME280;42419;48.760;2.322;2023-06-22T10:03:51;100810.25;;;25.76;nan
56518;BME280;42419;48.760;2.322;2023-06-22T10:06:19;100812.94;;;25.76;nan
56518;BME280;42419;48.760;2.322;2023-06-22T10:08:45;100814.69;;;25.77;nan
56518;BME280;42419;48.760;2.322;2023-06-22T10:11:10;100779.97;;;25.57;nan
56518;BME280;42419;48.760;2.322;2023-06-22T10:13:36;100786.03;;;25.60;nan
56518;BME280;42419;48.760;2.322;2023-06-22T10:16:01;100816.22;;;25.81;nan
56518;BME280;42419;48.760;2.322;2023-06-22T10:18:26;100785.84;;;25.63;nan
56518;BME280;42419;48.760;2.322;2023-06-22T10:20:52;100816.00;;;25.84;nan
56518;BME280;42419;48.760;2.322;2023-06-22T10:23:18;100821.25;;;25.87;nan
56518;BME280;42419;48.760;2.322;2023-06-22T10:25:47;100806.50;;;25.78;nan
56518;BME280;42419;48.760;2.322;2023-06-22T10:28:13;100805.44;;;25.81;nan
56518;BME280;42419;48.760;2.322;2023-06-22T10:30:39;100831.34;;;25.98;nan
56518;BME280;42419;48.760;2.322;2023-06-22T10:33:07;100807.63;;;25.88;nan
56518;BME280;42419;48.760;2.322;2023-06-22T10:35:32;100841.75;;;26.04;nan
56518;BME280;42419;48.760;2.322;2023-06-22T10:37:58;100842.53;;;26.06;nan
56518;BME280;42419;48.760;2.322;2023-06-22T10:40:23;100850.44;;;26.09;nan
56518;BME280;42419;48.760;2.322;2023-06-22T10:42:48;100850.34;;;26.10;nan
56518;BME280;42419;48.760;2.322;2023-06-22T10:45:15;100861.03;;;26.12;nan
56518;BME280;42419;48.760;2.322;2023-06-22T10:47:41;100838.97;;;26.05;nan
56518;BME280;42419;48.760;2.322;2023-06-22T10:50:07;100862.69;;;26.14;nan
56518;BME280;42419;48.760;2.322;2023-06-22T10:52:33;100867.00;;;26.17;nan
56518;BME280;42419;48.760;2.322;2023-06-22T10:54:58;100876.84;;;26.18;nan
56518;BME280;42419;48.760;2.322;2023-06-22T10:57:23;100887.56;;;26.19;nan
56518;BME280;42419;48.760;2.322;2023-06-22T10:59:49;100877.59;;;26.20;nan
56518;BME280;42419;48.760;2.322;2023-06-22T11:02:14;100866.53;;;26.10;nan
56518;BME280;42419;48.760;2.322;2023-06-22T11:04:39;100876.56;;;26.22;nan
56518;BME280;42419;48.760;2.322;2023-06-22T11:07:05;100858.53;;;26.09;nan
56518;BME280;42419;48.760;2.322;2023-06-22T11:09:30;100853.06;;;26.10;nan
56518;BME280;42419;48.760;2.322;2023-06-22T11:11:56;100880.00;;;26.24;nan
56518;BME280;42419;48.760;2.322;2023-06-22T11:14:24;100875.47;;;26.25;nan
56518;BME280;42419;48.760;2.322;2023-06-22T11:16:49;100815.19;;;25.83;nan
56518;BME280;42419;48.760;2.322;2023-06-22T11:19:15;100889.97;;;26.24;nan
56518;BME280;42419;48.760;2.322;2023-06-22T11:21:40;100894.28;;;26.26;nan
56518;BME280;42419;48.760;2.322;2023-06-22T11:24:05;100864.50;;;26.14;nan
56518;BME280;42419;48.760;2.322;2023-06-22T11:26:31;100888.81;;;26.28;nan
56518;BME280;42419;48.760;2.322;2023-06-22T11:28:59;100880.72;;;26.28;nan
56518;BME280;42419;48.760;2.322;2023-06-22T11:31:25;100881.53;;;26.28;nan
56518;BME280;42419;48.760;2.322;2023-06-22T11:33:50;100882.41;;;26.29;nan
56518;BME280;42419;48.760;2.322;2023-06-22T11:36:16;100883.31;;;26.29;nan
56518;BME280;42419;48.760;2.322;2023-06-22T11:38:43;100887.75;;;26.30;nan
56518;BME280;42419;48.760;2.322;2023-06-22T11:41:09;100884.09;;;26.31;nan
56518;BME280;42419;48.760;2.322;2023-06-22T11:43:35;100887.56;;;26.33;nan
56518;BME280;42419;48.760;2.322;2023-06-22T11:46:02;100892.97;;;26.33;nan
56518;BME280;42419;48.760;2.322;2023-06-22T11:48:28;100869.63;;;26.18;nan
56518;BME280;42419;48.760;2.322;2023-06-22T11:50:53;100904.47;;;26.37;nan
56518;BME280;42419;48.760;2.322;2023-06-22T11:53:20;100900.88;;;26.37;nan
56518;BME280;42419;48.760;2.322;2023-06-22T11:55:46;100888.81;;;26.28;nan
56518;BME280;42419;48.760;2.322;2023-06-22T11:58:12;100902.81;;;26.34;nan
56518;BME280;42419;48.760;2.322;2023-06-22T12:00:37;100908.50;;;26.44;nan
56518;BME280;42419;48.760;2.322;2023-06-22T12:03:02;100814.59;;;25.92;nan
56518;BME280;42419;48.760;2.322;2023-06-22T12:05:28;100907.25;;;26.50;nan
56518;BME280;42419;48.760;2.322;2023-06-22T12:07:53;100900.88;;;26.51;nan
56518;BME280;42419;48.760;2.322;2023-06-22T12:10:20;100896.13;;;26.54;nan
56518;BME280;42419;48.760;2.322;2023-06-22T12:12:45;100863.09;;;26.37;nan
56518;BME280;42419;48.760;2.322;2023-06-22T12:15:13;100898.56;;;26.59;nan
56518;BME280;42419;48.760;2.322;2023-06-22T12:17:38;100900.25;;;26.60;nan
56518;BME280;42419;48.760;2.322;2023-06-22T12:20:05;100902.78;;;26.63;nan
56518;BME280;42419;48.760;2.322;2023-06-22T12:22:34;100897.09;;;26.53;nan
56518;BME280;42419;48.760;2.322;2023-06-22T12:24:59;100923.97;;;26.69;nan
56518;BME280;42419;48.760;2.322;2023-06-22T12:27:25;100890.16;;;26.49;nan
56518;BME280;42419;48.760;2.322;2023-06-22T12:29:51;100929.28;;;26.70;nan
56518;BME280;42419;48.760;2.322;2023-06-22T12:32:16;100924.84;;;26.69;nan
56518;BME280;42419;48.760;2.322;2023-06-22T12:34:42;100926.38;;;26.73;nan
56518;BME280;42419;48.760;2.322;2023-06-22T12:37:08;100913.38;;;26.66;nan
56518;BME280;42419;48.760;2.322;2023-06-22T12:39:33;100920.91;;;26.61;nan
56518;BME280;42419;48.760;2.322;2023-06-22T12:41:58;100948.88;;;26.74;nan
56518;BME280;42419;48.760;2.322;2023-06-22T12:44:24;100959.69;;;26.74;nan
56518;BME280;42419;48.760;2.322;2023-06-22T12:46:49;100953.41;;;26.73;nan
56518;BME280;42419;48.760;2.322;2023-06-22T12:49:14;100961.50;;;26.73;nan
56518;BME280;42419;48.760;2.322;2023-06-22T12:51:41;100974.25;;;26.71;nan
56518;BME280;42419;48.760;2.322;2023-06-22T12:54:07;100966.06;;;26.73;nan
56518;BME280;42419;48.760;2.322;2023-06-22T12:56:33;100969.72;;;26.72;nan
56518;BME280;42419;48.760;2.322;2023-06-22T12:58:59;100964.50;;;26.69;nan
56518;BME280;42419;48.760;2.322;2023-06-22T13:01:30;100920.38;;;26.42;nan
56518;BME280;42419;48.760;2.322;2023-06-22T13:03:56;100974.34;;;26.70;nan
56518;BME280;42419;48.760;2.322;2023-06-22T13:06:21;100974.47;;;26.68;nan
56518;BME280;42419;48.760;2.322;2023-06-22T13:08:46;100975.50;;;26.66;nan